Time;durP1;ratioP1;P1;durP2;ratioP2;P2;SDS_P1;SDS_P2;PMS_P1;PMS_P2;Temp;Humidity;BMP_temperature;BMP_pressure;BME280_temperature;BME280_humidity;BME280_pressure;Samples;Min_cycle;Max_cycle;Signal;HPM_P1;HPM_P2
2022/06/10 00:00:17;;;;;;;0.10;0.10;;;;;;;;;;4920296;29;20039;-89
2022/06/10 00:02:43;;;;;;;0.10;0.10;;;;;;;;;;4904372;29;20048;-88
2022/06/10 00:05:29;;;;;;;0.10;0.10;;;;;;;;;;4920140;29;20063;-88
2022/06/10 00:07:55;;;;;;;0.10;0.10;;;;;;;;;;4935698;29;20043;-88
2022/06/10 00:10:22;;;;;;;0.30;0.30;;;;;;;;;;4935978;29;20043;-89
2022/06/10 00:12:48;;;;;;;0.10;0.10;;;;;;;;;;4920046;29;20052;-88
2022/06/10 00:15:14;;;;;;;0.10;0.10;;;;;;;;;;4904279;29;20148;-88
2022/06/10 00:17:40;;;;;;;0.10;0.10;;;;;;;;;;4919000;29;20119;-88
2022/06/10 00:20:07;;;;;;;0.10;0.10;;;;;;;;;;4918782;29;20051;-88
2022/06/10 00:22:32;;;;;;;0.10;0.10;;;;;;;;;;4918723;29;20044;-87
2022/06/10 00:24:58;;;;;;;0.20;0.20;;;;;;;;;;4919176;29;20040;-88
2022/06/10 00:27:25;;;;;;;0.10;0.10;;;;;;;;;;4918639;29;20039;-87
2022/06/10 00:29:51;;;;;;;0.10;0.10;;;;;;;;;;4903066;29;20130;-88
2022/06/10 00:32:17;;;;;;;0.10;0.10;;;;;;;;;;4918693;29;20452;-87
2022/06/10 00:34:43;;;;;;;0.10;0.10;;;;;;;;;;4902864;29;20071;-88
2022/06/10 00:37:11;;;;;;;0.10;0.10;;;;;;;;;;4902860;29;20099;-87
2022/06/10 00:39:37;;;;;;;0.10;0.10;;;;;;;;;;4918579;29;20143;-87
2022/06/10 00:42:04;;;;;;;0.10;0.10;;;;;;;;;;4902813;29;20095;-87
2022/06/10 00:44:40;;;;;;;0.10;0.10;;;;;;;;;;4918408;29;20130;-88
2022/06/10 00:47:12;;;;;;;0.10;0.10;;;;;;;;;;4918451;29;20044;-88
2022/06/10 00:49:37;;;;;;;0.10;0.10;;;;;;;;;;4918499;29;20559;-88
2022/06/10 00:52:04;;;;;;;0.10;0.10;;;;;;;;;;4934083;29;20144;-88
2022/06/10 00:54:29;;;;;;;0.10;0.10;;;;;;;;;;4918289;29;20046;-87
2022/06/10 00:57:05;;;;;;;0.10;0.10;;;;;;;;;;4918418;29;20047;-87
2022/06/10 00:59:51;;;;;;;0.10;0.10;;;;;;;;;;4934215;29;20040;-87
2022/06/10 01:02:18;;;;;;;0.10;0.10;;;;;;;;;;4923388;29;20083;-87
2022/06/10 01:04:44;;;;;;;0.10;0.10;;;;;;;;;;4918274;29;20047;-86
2022/06/10 01:07:11;;;;;;;0.10;0.10;;;;;;;;;;4918241;29;20050;-87
2022/06/10 01:09:37;;;;;;;0.10;0.10;;;;;;;;;;4902528;29;20039;-87
2022/06/10 01:12:03;;;;;;;0.10;0.10;;;;;;;;;;4902535;29;20395;-87
2022/06/10 01:14:44;;;;;;;0.10;0.10;;;;;;;;;;4933664;29;20043;-88
2022/06/10 01:17:12;;;;;;;0.10;0.10;;;;;;;;;;4897254;29;1075828;-87
2022/06/10 01:19:53;;;;;;;0.10;0.10;;;;;;;;;;4918748;29;20559;-87
2022/06/10 01:22:19;;;;;;;0.10;0.10;;;;;;;;;;4934440;29;20518;-88
2022/06/10 01:24:58;;;;;;;0.10;0.10;;;;;;;;;;4918859;29;20047;-87
2022/06/10 01:27:48;;;;;;;0.10;0.10;;;;;;;;;;4934365;29;20047;-87
2022/06/10 01:30:33;;;;;;;0.10;0.10;;;;;;;;;;4920714;29;20167;-88
2022/06/10 01:33:18;;;;;;;0.10;0.10;;;;;;;;;;4918360;29;20051;-89
2022/06/10 01:35:57;;;;;;;0.10;0.10;;;;;;;;;;4918384;29;20255;-88
2022/06/10 01:38:25;;;;;;;0.10;0.10;;;;;;;;;;4918701;29;20051;-88
2022/06/10 01:40:54;;;;;;;0.20;0.20;;;;;;;;;;4918583;29;20047;-88
2022/06/10 01:43:27;;;;;;;0.10;0.10;;;;;;;;;;4934100;29;20557;-89
2022/06/10 01:46:06;;;;;;;0.10;0.10;;;;;;;;;;4902771;29;20054;-87
2022/06/10 01:48:33;;;;;;;0.10;0.10;;;;;;;;;;4918511;29;20512;-87
2022/06/10 01:51:09;;;;;;;0.10;0.10;;;;;;;;;;4918252;29;20134;-87
2022/06/10 01:53:38;;;;;;;0.10;0.10;;;;;;;;;;4918118;29;20488;-86
2022/06/10 01:56:13;;;;;;;0.10;0.10;;;;;;;;;;4933950;29;20039;-87
2022/06/10 01:58:40;;;;;;;0.10;0.10;;;;;;;;;;4933817;29;20043;-86
2022/06/10 02:01:11;;;;;;;0.10;0.10;;;;;;;;;;4918126;29;20047;-86
2022/06/10 02:03:38;;;;;;;0.10;0.10;;;;;;;;;;4918181;29;20551;-87
2022/06/10 02:06:09;;;;;;;0.10;0.10;;;;;;;;;;4902399;29;20492;-87
2022/06/10 02:08:36;;;;;;;0.10;0.10;;;;;;;;;;4917863;29;20047;-86
2022/06/10 02:11:04;;;;;;;0.10;0.10;;;;;;;;;;4902218;29;20169;-87
2022/06/10 02:13:32;;;;;;;0.10;0.10;;;;;;;;;;4917003;29;20090;-87
2022/06/10 02:15:59;;;;;;;0.10;0.10;;;;;;;;;;4917729;29;20047;-87
2022/06/10 02:18:29;;;;;;;0.10;0.10;;;;;;;;;;4902403;29;20059;-86
2022/06/10 02:21:06;;;;;;;0.10;0.10;;;;;;;;;;4918090;29;20043;-86
2022/06/10 02:23:35;;;;;;;0.10;0.10;;;;;;;;;;4901964;29;20127;-87
2022/06/10 02:26:02;;;;;;;0.20;0.20;;;;;;;;;;4917919;29;20099;-86
2022/06/10 02:28:29;;;;;;;0.13;0.13;;;;;;;;;;4917985;29;20093;-87
2022/06/10 02:31:00;;;;;;;0.10;0.10;;;;;;;;;;4917928;29;20048;-86
2022/06/10 02:33:26;;;;;;;0.10;0.10;;;;;;;;;;4902246;29;20039;-88
2022/06/10 02:35:56;;;;;;;0.10;0.10;;;;;;;;;;4934629;29;20530;-86
2022/06/10 02:38:26;;;;;;;0.10;0.10;;;;;;;;;;4902230;29;20090;-87
2022/06/10 02:40:58;;;;;;;0.10;0.10;;;;;;;;;;4917716;29;20086;-87
2022/06/10 02:43:42;;;;;;;0.10;0.10;;;;;;;;;;4917815;29;20048;-86
2022/06/10 02:46:11;;;;;;;0.10;0.10;;;;;;;;;;4917749;29;20071;-86
2022/06/10 02:48:47;;;;;;;0.10;0.10;;;;;;;;;;4917807;29;20416;-86
2022/06/10 02:51:15;;;;;;;0.10;0.10;;;;;;;;;;4933600;29;20443;-86
2022/06/10 02:53:41;;;;;;;0.10;0.10;;;;;;;;;;4902485;29;20373;-87
2022/06/10 02:56:15;;;;;;;0.10;0.10;;;;;;;;;;4917568;29;20071;-87
2022/06/10 03:01:40;;;;;;;0.10;0.10;;;;;;;;;;4933830;29;20070;-87
2022/06/10 03:04:15;;;;;;;0.10;0.10;;;;;;;;;;4901961;29;20098;-87
2022/06/10 03:06:47;;;;;;;0.10;0.10;;;;;;;;;;4917388;29;20135;-88
2022/06/10 03:09:19;;;;;;;0.10;0.10;;;;;;;;;;4917275;29;20079;-88
2022/06/10 03:11:45;;;;;;;0.10;0.10;;;;;;;;;;4933450;29;20044;-86
2022/06/10 03:14:29;;;;;;;0.10;0.10;;;;;;;;;;4933072;29;20044;-87
2022/06/10 03:17:16;;;;;;;0.10;0.10;;;;;;;;;;4917250;29;20059;-86
2022/06/10 03:19:50;;;;;;;0.10;0.10;;;;;;;;;;4917317;29;20047;-87
2022/06/10 03:22:35;;;;;;;0.10;0.10;;;;;;;;;;4901813;29;20079;-86
2022/06/10 03:25:08;;;;;;;0.20;0.20;;;;;;;;;;4934259;29;20044;-86
2022/06/10 03:27:46;;;;;;;0.10;0.10;;;;;;;;;;4920860;29;20074;-87
2022/06/10 03:30:14;;;;;;;0.10;0.10;;;;;;;;;;4936315;29;20036;-87
2022/06/10 03:33:07;;;;;;;0.10;0.10;;;;;;;;;;4921046;29;20388;-87
2022/06/10 03:35:42;;;;;;;0.10;0.10;;;;;;;;;;4933748;29;20074;-87
2022/06/10 03:38:08;;;;;;;0.60;0.30;;;;;;;;;;4936529;29;20095;-87
2022/06/10 03:40:34;;;;;;;0.10;0.10;;;;;;;;;;4904910;29;20066;-87
2022/06/10 03:43:01;;;;;;;0.10;0.10;;;;;;;;;;4920548;29;20059;-88
2022/06/10 03:45:33;;;;;;;0.10;0.10;;;;;;;;;;4920805;29;20052;-88
2022/06/10 03:47:59;;;;;;;0.10;0.10;;;;;;;;;;4920442;29;20050;-88
2022/06/10 03:50:26;;;;;;;0.10;0.10;;;;;;;;;;4904611;29;20031;-87
2022/06/10 03:52:52;;;;;;;0.10;0.10;;;;;;;;;;4920062;29;20277;-87
2022/06/10 03:55:19;;;;;;;0.20;0.20;;;;;;;;;;4920250;29;20046;-87
2022/06/10 03:57:45;;;;;;;0.10;0.10;;;;;;;;;;4920301;29;20075;-87
2022/06/10 04:00:29;;;;;;;0.10;0.10;;;;;;;;;;4920123;29;20051;-88
2022/06/10 04:02:55;;;;;;;0.10;0.10;;;;;;;;;;4920100;29;20047;-87
2022/06/10 04:05:21;;;;;;;0.10;0.10;;;;;;;;;;4904246;29;20043;-88
2022/06/10 04:07:47;;;;;;;0.10;0.10;;;;;;;;;;4935705;29;20107;-88
2022/06/10 04:10:14;;;;;;;0.10;0.10;;;;;;;;;;4904283;29;20036;-87
2022/06/10 04:12:40;;;;;;;0.10;0.10;;;;;;;;;;4935614;29;20070;-87
2022/06/10 04:15:06;;;;;;;0.10;0.10;;;;;;;;;;4919929;29;20080;-87
2022/06/10 04:17:32;;;;;;;0.10;0.10;;;;;;;;;;4919779;29;20195;-87
2022/06/10 04:19:59;;;;;;;0.17;0.17;;;;;;;;;;4904091;29;20051;-88
2022/06/10 04:22:25;;;;;;;0.20;0.20;;;;;;;;;;4903999;29;20044;-88
2022/06/10 04:24:51;;;;;;;0.10;0.10;;;;;;;;;;4903936;29;20510;-87
2022/06/10 04:27:17;;;;;;;0.10;0.10;;;;;;;;;;4919631;29;20043;-88
2022/06/10 04:29:43;;;;;;;0.10;0.10;;;;;;;;;;4935426;29;20196;-87
2022/06/10 04:32:09;;;;;;;0.10;0.10;;;;;;;;;;4919862;29;20200;-87
2022/06/10 04:34:36;;;;;;;0.10;0.10;;;;;;;;;;4919385;29;20131;-87
2022/06/10 04:37:03;;;;;;;0.10;0.10;;;;;;;;;;4918824;29;20058;-88
2022/06/10 04:39:29;;;;;;;0.10;0.10;;;;;;;;;;4919493;29;20579;-87
2022/06/10 04:41:54;;;;;;;0.20;0.20;;;;;;;;;;4935380;29;20126;-88
2022/06/10 04:44:20;;;;;;;0.10;0.10;;;;;;;;;;4919321;29;20122;-88
2022/06/10 04:46:46;;;;;;;0.10;0.10;;;;;;;;;;4903626;29;20054;-88
2022/06/10 04:49:12;;;;;;;0.13;0.13;;;;;;;;;;4934999;29;20044;-88
2022/06/10 04:51:38;;;;;;;0.10;0.10;;;;;;;;;;4919325;29;20044;-88
2022/06/10 04:54:05;;;;;;;0.10;0.10;;;;;;;;;;4919608;29;20055;-88
2022/06/10 04:56:31;;;;;;;0.10;0.10;;;;;;;;;;4903529;29;20040;-88
2022/06/10 04:58:57;;;;;;;0.10;0.10;;;;;;;;;;4903338;29;20054;-88
2022/06/10 05:01:24;;;;;;;0.28;0.25;;;;;;;;;;4934863;29;20040;-89
2022/06/10 05:03:50;;;;;;;0.10;0.10;;;;;;;;;;4903412;29;20048;-87
2022/06/10 05:06:16;;;;;;;0.10;0.10;;;;;;;;;;4934764;29;20062;-87
2022/06/10 05:08:42;;;;;;;0.20;0.20;;;;;;;;;;4903249;29;20040;-87
2022/06/10 05:11:08;;;;;;;0.10;0.10;;;;;;;;;;4918966;29;20443;-87
2022/06/10 05:13:35;;;;;;;0.10;0.10;;;;;;;;;;4918950;29;20044;-87
2022/06/10 05:16:01;;;;;;;0.10;0.10;;;;;;;;;;4918647;29;20044;-87
2022/06/10 05:18:27;;;;;;;0.10;0.10;;;;;;;;;;4903012;29;20262;-87
2022/06/10 05:20:53;;;;;;;0.20;0.20;;;;;;;;;;4918752;29;20488;-88
2022/06/10 05:23:21;;;;;;;0.10;0.10;;;;;;;;;;4903187;29;20047;-88
2022/06/10 05:25:47;;;;;;;0.10;0.10;;;;;;;;;;4903231;29;20039;-87
2022/06/10 05:28:13;;;;;;;0.10;0.10;;;;;;;;;;4902755;29;20044;-87
2022/06/10 05:30:39;;;;;;;0.10;0.10;;;;;;;;;;4903041;29;20043;-87
2022/06/10 05:33:05;;;;;;;0.10;0.10;;;;;;;;;;4918584;29;20075;-88
2022/06/10 05:35:32;;;;;;;0.20;0.20;;;;;;;;;;4918573;29;20058;-88
2022/06/10 05:37:58;;;;;;;0.10;0.10;;;;;;;;;;4918463;29;20047;-87
2022/06/10 05:40:25;;;;;;;0.30;0.30;;;;;;;;;;4918429;29;20050;-88
2022/06/10 05:42:51;;;;;;;0.10;0.10;;;;;;;;;;4918397;29;20040;-86
2022/06/10 05:45:17;;;;;;;0.10;0.10;;;;;;;;;;4902710;29;20044;-87
2022/06/10 05:47:44;;;;;;;0.10;0.10;;;;;;;;;;4917965;29;20319;-86
2022/06/10 05:50:30;;;;;;;0.10;0.10;;;;;;;;;;4918290;29;20071;-88
2022/06/10 05:52:56;;;;;;;0.10;0.10;;;;;;;;;;4924210;29;20083;-87
2022/06/10 05:55:22;;;;;;;0.13;0.13;;;;;;;;;;4918212;29;20123;-88
2022/06/10 05:57:50;;;;;;;0.10;0.10;;;;;;;;;;4918446;29;20047;-88
2022/06/10 06:00:19;;;;;;;0.10;0.10;;;;;;;;;;4902928;29;20051;-87
2022/06/10 06:02:45;;;;;;;0.10;0.10;;;;;;;;;;4918095;29;20135;-88
2022/06/10 06:05:11;;;;;;;0.20;0.20;;;;;;;;;;4933807;29;20459;-88
2022/06/10 06:07:38;;;;;;;0.10;0.10;;;;;;;;;;4918282;29;20135;-89
2022/06/10 06:10:04;;;;;;;0.20;0.20;;;;;;;;;;4918014;29;20067;-90
2022/06/10 06:12:30;;;;;;;0.10;0.10;;;;;;;;;;4902347;29;20075;-90
2022/06/10 06:14:56;;;;;;;0.10;0.10;;;;;;;;;;4933837;29;20039;-90
2022/06/10 06:17:22;;;;;;;0.20;0.20;;;;;;;;;;4933473;29;20060;-89
2022/06/10 06:19:48;;;;;;;0.10;0.10;;;;;;;;;;4918232;29;20095;-88
2022/06/10 06:22:15;;;;;;;0.10;0.10;;;;;;;;;;4917895;29;20043;-89
2022/06/10 06:24:41;;;;;;;0.20;0.20;;;;;;;;;;4933684;29;20130;-89
2022/06/10 06:27:07;;;;;;;0.20;0.20;;;;;;;;;;4917827;29;20147;-87
2022/06/10 06:29:33;;;;;;;0.10;0.10;;;;;;;;;;4917915;29;20071;-87
2022/06/10 06:31:59;;;;;;;0.10;0.10;;;;;;;;;;4933787;29;20071;-89
2022/06/10 06:34:26;;;;;;;0.10;0.10;;;;;;;;;;4902425;29;20047;-92
2022/06/10 06:36:53;;;;;;;0.20;0.20;;;;;;;;;;4915914;29;20055;-93
2022/06/10 06:39:20;;;;;;;0.13;0.13;;;;;;;;;;4902781;29;20399;-93
2022/06/10 06:41:46;;;;;;;0.10;0.10;;;;;;;;;;4902162;29;20412;-92
2022/06/10 06:44:12;;;;;;;0.10;0.10;;;;;;;;;;4886902;29;20400;-91
2022/06/10 06:46:38;;;;;;;0.10;0.10;;;;;;;;;;4886702;29;20044;-92
2022/06/10 06:49:05;;;;;;;0.10;0.10;;;;;;;;;;4886658;29;20103;-92
2022/06/10 06:51:32;;;;;;;0.10;0.10;;;;;;;;;;4894778;29;20377;-90
2022/06/10 06:53:58;;;;;;;0.10;0.10;;;;;;;;;;4894950;29;20559;-91
2022/06/10 06:56:25;;;;;;;0.10;0.10;;;;;;;;;;4914131;29;20114;-92
2022/06/10 06:58:51;;;;;;;0.10;0.10;;;;;;;;;;4902083;29;20462;-91
2022/06/10 07:01:17;;;;;;;0.10;0.10;;;;;;;;;;4905070;29;20114;-92
2022/06/10 07:03:46;;;;;;;0.10;0.10;;;;;;;;;;4921333;29;20040;-93
2022/06/10 07:06:12;;;;;;;0.10;0.10;;;;;;;;;;4922104;29;20035;-92
2022/06/10 07:08:38;;;;;;;0.10;0.10;;;;;;;;;;4905448;29;20107;-91
2022/06/10 07:11:04;;;;;;;0.10;0.10;;;;;;;;;;4905314;29;20039;-91
2022/06/10 07:13:30;;;;;;;0.10;0.10;;;;;;;;;;4921351;29;20472;-91
2022/06/10 07:15:57;;;;;;;0.17;0.17;;;;;;;;;;4905143;29;20063;-89
2022/06/10 07:18:23;;;;;;;0.10;0.10;;;;;;;;;;4905654;29;20060;-91
2022/06/10 07:20:49;;;;;;;0.10;0.10;;;;;;;;;;4920833;29;20484;-92
2022/06/10 07:23:15;;;;;;;0.10;0.10;;;;;;;;;;4905978;29;20075;-93
2022/06/10 07:25:42;;;;;;;0.10;0.10;;;;;;;;;;4911083;29;20039;-93
2022/06/10 07:28:08;;;;;;;0.10;0.10;;;;;;;;;;4905740;29;20063;-96
2022/06/10 07:30:35;;;;;;;0.10;0.10;;;;;;;;;;4906213;29;20052;-95
2022/06/10 07:33:08;;;;;;;0.10;0.10;;;;;;;;;;4906137;29;20488;-96
2022/06/10 07:35:34;;;;;;;0.10;0.10;;;;;;;;;;4936265;29;20091;-94
2022/06/10 07:38:00;;;;;;;0.10;0.10;;;;;;;;;;4904727;29;20046;-88
2022/06/10 07:43:15;;;;;;;0.10;0.10;;;;;;;;;;4923806;29;20134;-95
2022/06/10 07:45:41;;;;;;;0.10;0.10;;;;;;;;;;4905285;29;20050;-92
2022/06/10 07:48:07;;;;;;;0.10;0.10;;;;;;;;;;4922016;29;20046;-95
2022/06/10 07:50:48;;;;;;;0.20;0.20;;;;;;;;;;4922771;29;20055;-93
2022/06/10 07:53:14;;;;;;;0.10;0.10;;;;;;;;;;4903893;29;20059;-93
2022/06/10 07:55:40;;;;;;;0.10;0.10;;;;;;;;;;4904699;29;20054;-93
2022/06/10 07:58:07;;;;;;;0.10;0.10;;;;;;;;;;4905027;29;20407;-93
2022/06/10 08:00:34;;;;;;;0.10;0.10;;;;;;;;;;4920548;29;20051;-93
2022/06/10 08:03:03;;;;;;;0.13;0.13;;;;;;;;;;4905000;29;20086;-95
2022/06/10 08:05:32;;;;;;;0.10;0.10;;;;;;;;;;4905347;29;20044;-91
2022/06/10 08:08:00;;;;;;;0.10;0.10;;;;;;;;;;4904507;29;20048;-92
2022/06/10 08:10:27;;;;;;;0.20;0.20;;;;;;;;;;4904907;29;20134;-93
2022/06/10 08:12:56;;;;;;;0.10;0.10;;;;;;;;;;4904989;29;20043;-93
2022/06/10 08:15:23;;;;;;;0.20;0.20;;;;;;;;;;4906278;29;20393;-95
2022/06/10 08:17:50;;;;;;;0.10;0.10;;;;;;;;;;4905243;29;20146;-93
2022/06/10 08:20:22;;;;;;;0.10;0.10;;;;;;;;;;4905116;29;20555;-94
2022/06/10 08:22:48;;;;;;;0.10;0.10;;;;;;;;;;4905176;29;20406;-95
2022/06/10 08:25:14;;;;;;;0.10;0.10;;;;;;;;;;4904813;29;20138;-94
2022/06/10 08:27:40;;;;;;;0.10;0.10;;;;;;;;;;4904534;29;20044;-92
2022/06/10 08:30:08;;;;;;;0.10;0.10;;;;;;;;;;4920221;29;20051;-93
2022/06/10 08:32:34;;;;;;;0.10;0.10;;;;;;;;;;4920287;29;20040;-92
2022/06/10 08:35:00;;;;;;;0.10;0.10;;;;;;;;;;4904778;29;20464;-93
2022/06/10 08:37:26;;;;;;;0.10;0.10;;;;;;;;;;4904528;29;20083;-94
2022/06/10 08:39:52;;;;;;;0.10;0.10;;;;;;;;;;4904482;29;20131;-93
2022/06/10 08:42:39;;;;;;;0.10;0.10;;;;;;;;;;4904461;29;20415;-95
2022/06/10 08:45:24;;;;;;;0.35;0.35;;;;;;;;;;4933942;29;20050;-94
2022/06/10 08:48:02;;;;;;;0.10;0.10;;;;;;;;;;4919770;29;20083;-93
2022/06/10 08:50:43;;;;;;;0.10;0.10;;;;;;;;;;4919582;29;20095;-92
2022/06/10 08:53:12;;;;;;;0.10;0.10;;;;;;;;;;4919587;29;20043;-93
2022/06/10 08:56:03;;;;;;;0.10;0.10;;;;;;;;;;4920096;29;20554;-92
2022/06/10 08:58:40;;;;;;;0.10;0.10;;;;;;;;;;4919395;29;20040;-90
2022/06/10 09:01:07;;;;;;;0.10;0.10;;;;;;;;;;4903357;29;20043;-88
2022/06/10 09:03:35;;;;;;;0.10;0.10;;;;;;;;;;4919103;29;20488;-88
2022/06/10 09:06:04;;;;;;;0.10;0.10;;;;;;;;;;4918974;29;20131;-88
2022/06/10 09:08:41;;;;;;;0.10;0.10;;;;;;;;;;4902995;29;20044;-89
2022/06/10 09:11:07;;;;;;;0.10;0.10;;;;;;;;;;4903559;29;20400;-88
2022/06/10 09:13:36;;;;;;;0.20;0.20;;;;;;;;;;4934583;29;20496;-88
2022/06/10 09:16:02;;;;;;;0.10;0.10;;;;;;;;;;4934276;29;20132;-86
2022/06/10 09:18:30;;;;;;;0.10;0.10;;;;;;;;;;4917117;29;20130;-88
2022/06/10 09:21:16;;;;;;;0.10;0.10;;;;;;;;;;4902914;29;20043;-87
2022/06/10 09:23:43;;;;;;;0.10;0.10;;;;;;;;;;4918005;29;20535;-88
2022/06/10 09:26:10;;;;;;;0.20;0.20;;;;;;;;;;4902875;29;20131;-89
2022/06/10 09:28:39;;;;;;;0.20;0.20;;;;;;;;;;4902740;29;20095;-87
2022/06/10 09:31:28;;;;;;;0.10;0.10;;;;;;;;;;4902820;29;20556;-87
2022/06/10 09:34:00;;;;;;;0.10;0.10;;;;;;;;;;4902869;29;20040;-87
2022/06/10 09:36:33;;;;;;;0.10;0.10;;;;;;;;;;4902746;29;20039;-86
2022/06/10 09:39:07;;;;;;;0.20;0.20;;;;;;;;;;4918482;29;20162;-88
2022/06/10 09:41:45;;;;;;;0.10;0.10;;;;;;;;;;4887124;29;20050;-88
2022/06/10 09:44:32;;;;;;;0.10;0.10;;;;;;;;;;4886967;29;20040;-87
2022/06/10 09:47:17;;;;;;;0.10;0.10;;;;;;;;;;4902968;29;20044;-87
2022/06/10 09:49:55;;;;;;;0.10;0.10;;;;;;;;;;4918208;29;20059;-89
2022/06/10 09:52:25;;;;;;;0.20;0.20;;;;;;;;;;4918489;29;20039;-87
2022/06/10 09:55:11;;;;;;;0.10;0.10;;;;;;;;;;4918420;29;20102;-87
2022/06/10 09:57:40;;;;;;;0.10;0.10;;;;;;;;;;4918344;29;20055;-87
2022/06/10 10:00:18;;;;;;;0.10;0.10;;;;;;;;;;4933814;29;20496;-87
2022/06/10 10:02:56;;;;;;;0.20;0.20;;;;;;;;;;4917903;29;20089;-87
2022/06/10 10:05:45;;;;;;;0.10;0.10;;;;;;;;;;4933903;29;20043;-87
2022/06/10 10:08:11;;;;;;;0.10;0.10;;;;;;;;;;4926475;29;20051;-87
2022/06/10 10:10:40;;;;;;;0.10;0.10;;;;;;;;;;4937754;29;20050;-88
2022/06/10 10:13:12;;;;;;;0.10;0.10;;;;;;;;;;4906463;29;20165;-90
2022/06/10 10:15:49;;;;;;;0.22;0.22;;;;;;;;;;4917886;29;20044;-90
2022/06/10 10:18:24;;;;;;;0.10;0.10;;;;;;;;;;4917963;29;20087;-89
2022/06/10 10:21:02;;;;;;;0.10;0.10;;;;;;;;;;4935172;29;20051;-88
2022/06/10 10:23:33;;;;;;;0.10;0.10;;;;;;;;;;4916428;29;20063;-87
2022/06/10 10:25:59;;;;;;;0.10;0.10;;;;;;;;;;4883338;29;20074;-88
2022/06/10 10:28:26;;;;;;;0.10;0.10;;;;;;;;;;4898789;29;20492;-87
2022/06/10 10:31:11;;;;;;;0.10;0.10;;;;;;;;;;4898813;29;20047;-88
2022/06/10 10:33:37;;;;;;;0.10;0.10;;;;;;;;;;4898706;29;20396;-87
2022/06/10 10:36:06;;;;;;;0.30;0.30;;;;;;;;;;4901434;29;20043;-87
2022/06/10 10:38:32;;;;;;;0.10;0.10;;;;;;;;;;4902618;29;20075;-87
2022/06/10 10:40:58;;;;;;;0.10;0.10;;;;;;;;;;4902588;29;20075;-88
2022/06/10 10:43:28;;;;;;;0.10;0.10;;;;;;;;;;4902368;29;20047;-88
2022/06/10 10:45:56;;;;;;;0.22;0.22;;;;;;;;;;4902549;29;20063;-88
2022/06/10 10:48:25;;;;;;;0.10;0.10;;;;;;;;;;4902553;29;20076;-88
2022/06/10 10:51:02;;;;;;;0.10;0.10;;;;;;;;;;4887000;29;20161;-88
2022/06/10 10:53:31;;;;;;;0.10;0.10;;;;;;;;;;4902238;29;20048;-88
2022/06/10 10:55:58;;;;;;;0.13;0.13;;;;;;;;;;4902168;29;20063;-88
2022/06/10 10:58:28;;;;;;;0.10;0.10;;;;;;;;;;4902783;29;20467;-87
2022/06/10 11:01:02;;;;;;;0.13;0.13;;;;;;;;;;4902281;29;20048;-87
2022/06/10 11:03:38;;;;;;;0.10;0.10;;;;;;;;;;4886393;29;20099;-88
2022/06/10 11:06:05;;;;;;;0.10;0.10;;;;;;;;;;4904197;29;20484;-87
2022/06/10 11:08:33;;;;;;;0.10;0.10;;;;;;;;;;4905159;29;20090;-88
2022/06/10 11:11:18;;;;;;;0.10;0.10;;;;;;;;;;4890001;29;20043;-88
2022/06/10 11:13:45;;;;;;;0.10;0.10;;;;;;;;;;4920882;29;20051;-88
2022/06/10 11:16:26;;;;;;;0.10;0.10;;;;;;;;;;4889378;29;20062;-88
2022/06/10 11:19:12;;;;;;;0.10;0.10;;;;;;;;;;4920926;29;20126;-88
2022/06/10 11:21:51;;;;;;;0.10;0.10;;;;;;;;;;4905220;29;20047;-87
2022/06/10 11:24:18;;;;;;;0.10;0.10;;;;;;;;;;4889422;29;20044;-88
2022/06/10 11:26:51;;;;;;;0.15;0.15;;;;;;;;;;4904869;29;20139;-87
2022/06/10 11:29:17;;;;;;;0.20;0.20;;;;;;;;;;4889160;29;20050;-87
2022/06/10 11:31:47;;;;;;;0.10;0.10;;;;;;;;;;4904994;29;20043;-87
2022/06/10 11:34:15;;;;;;;0.10;0.10;;;;;;;;;;4904678;29;20039;-89
2022/06/10 11:36:45;;;;;;;0.10;0.10;;;;;;;;;;4904976;29;20035;-87
2022/06/10 11:39:19;;;;;;;0.10;0.10;;;;;;;;;;4905126;29;20054;-88
2022/06/10 11:42:08;;;;;;;0.10;0.10;;;;;;;;;;4905223;29;20044;-88
2022/06/10 11:44:39;;;;;;;0.10;0.10;;;;;;;;;;4921088;29;20051;-88
2022/06/10 11:47:05;;;;;;;0.20;0.20;;;;;;;;;;4905226;29;20518;-88
2022/06/10 11:49:37;;;;;;;0.10;0.10;;;;;;;;;;4904747;29;20080;-87
2022/06/10 11:52:12;;;;;;;0.10;0.10;;;;;;;;;;4889295;29;20047;-87
2022/06/10 11:54:42;;;;;;;0.10;0.10;;;;;;;;;;4920059;29;20059;-87
2022/06/10 11:59:52;;;;;;;0.10;0.10;;;;;;;;;;4920405;29;20134;-87
2022/06/10 12:02:37;;;;;;;0.10;0.10;;;;;;;;;;4920269;29;20538;-87
2022/06/10 12:05:06;;;;;;;0.10;0.10;;;;;;;;;;4920024;29;20055;-88
2022/06/10 12:07:32;;;;;;;0.15;0.15;;;;;;;;;;4920011;29;20051;-87
2022/06/10 12:09:58;;;;;;;0.10;0.10;;;;;;;;;;4904742;29;20043;-88
2022/06/10 12:12:31;;;;;;;0.10;0.10;;;;;;;;;;4904484;29;20411;-88
2022/06/10 12:14:58;;;;;;;0.10;0.10;;;;;;;;;;4895769;29;20122;-88
2022/06/10 12:17:37;;;;;;;0.10;0.10;;;;;;;;;;4906878;29;20098;-88
2022/06/10 12:20:07;;;;;;;0.10;0.10;;;;;;;;;;4902062;29;20475;-89
2022/06/10 12:22:33;;;;;;;0.20;0.20;;;;;;;;;;4888254;29;20399;-88
2022/06/10 12:24:59;;;;;;;0.10;0.10;;;;;;;;;;4903722;29;20044;-89
2022/06/10 12:27:35;;;;;;;0.20;0.20;;;;;;;;;;4895499;29;20055;-88
2022/06/10 12:30:03;;;;;;;0.20;0.20;;;;;;;;;;4887969;29;20522;-88
2022/06/10 12:32:47;;;;;;;0.20;0.20;;;;;;;;;;4903314;29;20099;-88
2022/06/10 12:35:18;;;;;;;0.20;0.20;;;;;;;;;;4885151;29;20040;-92
2022/06/10 12:37:46;;;;;;;0.10;0.10;;;;;;;;;;4885266;29;20059;-92
2022/06/10 12:40:12;;;;;;;0.10;0.10;;;;;;;;;;4884835;29;20048;-92
2022/06/10 12:42:40;;;;;;;0.10;0.10;;;;;;;;;;4884881;29;20554;-92
2022/06/10 12:45:10;;;;;;;0.20;0.20;;;;;;;;;;4884802;29;20051;-93
2022/06/10 12:47:37;;;;;;;0.13;0.13;;;;;;;;;;4885382;29;20525;-92
2022/06/10 12:50:05;;;;;;;0.10;0.10;;;;;;;;;;4900527;29;20392;-94
2022/06/10 12:52:57;;;;;;;0.10;0.10;;;;;;;;;;4899647;29;20460;-87
2022/06/10 12:55:24;;;;;;;0.10;0.10;;;;;;;;;;4872310;29;20052;-88
2022/06/10 12:57:50;;;;;;;0.10;0.10;;;;;;;;;;4907890;29;20055;-88
2022/06/10 13:00:19;;;;;;;0.13;0.13;;;;;;;;;;4915342;29;20044;-87
2022/06/10 13:02:45;;;;;;;0.10;0.10;;;;;;;;;;4919102;29;20546;-88
2022/06/10 13:05:17;;;;;;;0.10;0.10;;;;;;;;;;4887522;29;20039;-88
2022/06/10 13:07:43;;;;;;;0.10;0.10;;;;;;;;;;4887649;29;20044;-88
2022/06/10 13:10:27;;;;;;;0.17;0.17;;;;;;;;;;4887681;29;20127;-88
2022/06/10 13:12:53;;;;;;;0.10;0.10;;;;;;;;;;4918602;29;20051;-88
2022/06/10 13:15:26;;;;;;;0.13;0.13;;;;;;;;;;4903251;29;20036;-88
2022/06/10 13:17:53;;;;;;;0.20;0.20;;;;;;;;;;4903111;29;20055;-87
2022/06/10 13:20:20;;;;;;;0.10;0.10;;;;;;;;;;4902987;29;20079;-88
2022/06/10 13:23:06;;;;;;;0.10;0.10;;;;;;;;;;4918669;29;20059;-88
2022/06/10 13:25:32;;;;;;;0.10;0.10;;;;;;;;;;4934451;29;20375;-88
2022/06/10 13:27:58;;;;;;;0.10;0.10;;;;;;;;;;4918488;29;20135;-88
2022/06/10 13:30:27;;;;;;;0.10;0.10;;;;;;;;;;4918878;29;20046;-88
2022/06/10 13:32:56;;;;;;;0.20;0.20;;;;;;;;;;4934157;29;20444;-88
2022/06/10 13:35:28;;;;;;;0.10;0.10;;;;;;;;;;4903086;29;20044;-88
2022/06/10 13:37:58;;;;;;;0.10;0.10;;;;;;;;;;4918501;29;20048;-88
2022/06/10 13:40:24;;;;;;;0.10;0.10;;;;;;;;;;4918210;29;20043;-88
2022/06/10 13:42:51;;;;;;;0.10;0.10;;;;;;;;;;4902671;29;20051;-89
2022/06/10 13:45:18;;;;;;;0.10;0.10;;;;;;;;;;4918544;29;20433;-88
2022/06/10 13:47:56;;;;;;;0.20;0.20;;;;;;;;;;4933912;29;20047;-88
2022/06/10 13:53:42;;;;;;;1.35;0.65;;;;;;;;;;4882917;29;20379;-88
2022/06/10 13:56:12;;;;;;;0.20;0.20;;;;;;;;;;4922322;29;20062;-88
2022/06/10 13:58:43;;;;;;;0.20;0.20;;;;;;;;;;4902652;29;20055;-88
2022/06/10 14:01:19;;;;;;;0.10;0.10;;;;;;;;;;4918998;29;20059;-88
2022/06/10 14:04:09;;;;;;;0.20;0.20;;;;;;;;;;4917955;29;20106;-88
2022/06/10 14:06:49;;;;;;;0.10;0.10;;;;;;;;;;4907470;29;20051;-88
2022/06/10 14:09:18;;;;;;;0.20;0.20;;;;;;;;;;4917977;29;20052;-88
2022/06/10 14:11:44;;;;;;;0.20;0.20;;;;;;;;;;4933531;29;20075;-89
2022/06/10 14:14:10;;;;;;;0.20;0.20;;;;;;;;;;4917963;29;20514;-88
2022/06/10 14:16:36;;;;;;;0.28;0.28;;;;;;;;;;4917783;29;20060;-88
2022/06/10 14:19:04;;;;;;;0.20;0.20;;;;;;;;;;4902614;29;20421;-88
2022/06/10 14:21:30;;;;;;;0.20;0.20;;;;;;;;;;4902248;29;20191;-88
2022/06/10 14:24:11;;;;;;;0.15;0.15;;;;;;;;;;4902316;29;20036;-89
2022/06/10 14:26:38;;;;;;;0.20;0.20;;;;;;;;;;4917841;29;20043;-89
2022/06/10 14:29:20;;;;;;;0.20;0.20;;;;;;;;;;4917999;29;20043;-89
2022/06/10 14:31:47;;;;;;;0.20;0.20;;;;;;;;;;4918023;29;20039;-89
2022/06/10 14:34:15;;;;;;;0.10;0.10;;;;;;;;;;4901943;29;20039;-89
2022/06/10 14:36:52;;;;;;;0.20;0.20;;;;;;;;;;4917640;29;20040;-89
2022/06/10 14:39:23;;;;;;;0.20;0.20;;;;;;;;;;4918060;29;20044;-89
2022/06/10 14:42:00;;;;;;;0.10;0.10;;;;;;;;;;4902164;29;20080;-89
2022/06/10 14:44:55;;;;;;;0.22;0.22;;;;;;;;;;4902481;29;20044;-89
2022/06/10 14:47:31;;;;;;;0.17;0.17;;;;;;;;;;4932497;29;20095;-89
2022/06/10 14:49:58;;;;;;;0.10;0.10;;;;;;;;;;4901901;29;20050;-89
2022/06/10 14:52:44;;;;;;;0.13;0.13;;;;;;;;;;4917343;29;20040;-89
2022/06/10 14:55:15;;;;;;;0.10;0.10;;;;;;;;;;4917329;29;20051;-89
2022/06/10 14:57:41;;;;;;;0.10;0.10;;;;;;;;;;4917477;29;20092;-89
2022/06/10 15:00:12;;;;;;;0.10;0.10;;;;;;;;;;4917575;29;20044;-89
2022/06/10 15:02:38;;;;;;;0.20;0.20;;;;;;;;;;4933363;29;20044;-89
2022/06/10 15:07:49;;;;;;;0.10;0.10;;;;;;;;;;4919815;29;20131;-89
2022/06/10 15:10:15;;;;;;;0.20;0.20;;;;;;;;;;4901586;29;20082;-89
2022/06/10 15:12:42;;;;;;;0.20;0.20;;;;;;;;;;4902867;29;20497;-88
2022/06/10 15:15:10;;;;;;;0.22;0.22;;;;;;;;;;4918079;29;20079;-88